Time;durP1;ratioP1;P1;durP2;ratioP2;P2;SDS_P1;SDS_P2;PMS_P1;PMS_P2;Temp;Humidity;BMP_temperature;BMP_pressure;BME280_temperature;BME280_humidity;BME280_pressure;Samples;Min_cycle;Max_cycle;Signal;HPM_P1;HPM_P2
2021/01/07 00:00:15;;;;;;;1.40;0.73;;;22.20;49.50;;;;;;5009729;28;20080;-65
2021/01/07 00:02:41;;;;;;;2.00;1.00;;;22.10;49.50;;;;;;5022774;28;20107;-68
2021/01/07 00:05:07;;;;;;;2.38;0.93;;;22.10;49.60;;;;;;5014476;28;20026;-64
2021/01/07 00:07:34;;;;;;;1.70;0.90;;;22.10;49.60;;;;;;5005776;28;20030;-63
2021/01/07 00:10:01;;;;;;;1.80;1.00;;;22.10;49.70;;;;;;5013875;28;20104;-67
2021/01/07 00:12:27;;;;;;;2.03;0.88;;;22.10;49.80;;;;;;5014057;28;20026;-64
2021/01/07 00:14:53;;;;;;;2.25;0.70;;;22.00;49.80;;;;;;5024229;28;20104;-64
2021/01/07 00:17:18;;;;;;;1.08;0.80;;;22.00;49.90;;;;;;5016900;28;20725;-67
2021/01/07 00:19:44;;;;;;;2.22;0.80;;;22.00;50.00;;;;;;5004891;28;20030;-64
2021/01/07 00:22:10;;;;;;;1.38;0.80;;;22.00;50.00;;;;;;5021529;28;20025;-65
2021/01/07 00:24:35;;;;;;;0.75;0.70;;;22.00;50.00;;;;;;5013899;28;20112;-64
2021/01/07 00:27:02;;;;;;;1.67;0.73;;;21.90;50.10;;;;;;5009693;28;20465;-66
2021/01/07 00:29:27;;;;;;;1.60;0.88;;;22.00;50.20;;;;;;5021712;28;20044;-63
2021/01/07 00:31:53;;;;;;;1.60;0.90;;;21.90;50.10;;;;;;5012295;28;20057;-64
2021/01/07 00:34:21;;;;;;;0.95;0.80;;;21.90;50.20;;;;;;5013211;28;20029;-66
2021/01/07 00:36:52;;;;;;;1.83;0.85;;;21.90;50.30;;;;;;5014599;28;20044;-68
2021/01/07 00:39:18;;;;;;;1.00;0.70;;;21.90;50.30;;;;;;5021440;28;20770;-67
2021/01/07 00:41:43;;;;;;;1.25;0.77;;;21.80;50.30;;;;;;5016333;28;20034;-68
2021/01/07 00:44:09;;;;;;;0.82;0.68;;;21.80;50.90;;;;;;5014844;28;20536;-65
2021/01/07 00:46:35;;;;;;;3.00;0.90;;;21.80;50.40;;;;;;5017520;28;20025;-63
2021/01/07 00:49:00;;;;;;;1.25;0.80;;;21.80;50.50;;;;;;5007653;28;20212;-66
2021/01/07 00:51:32;;;;;;;2.22;0.90;;;21.80;50.40;;;;;;5007761;28;20460;-68
2021/01/07 00:53:58;;;;;;;1.58;0.82;;;21.80;50.40;;;;;;5015467;28;20603;-65
2021/01/07 00:56:24;;;;;;;1.75;0.80;;;21.80;50.50;;;;;;5007730;28;20464;-64
2021/01/07 00:58:50;;;;;;;1.50;0.65;;;21.80;50.40;;;;;;5008554;28;20026;-64
2021/01/07 01:01:15;;;;;;;1.30;0.75;;;21.80;50.40;;;;;;5008803;28;20384;-64
2021/01/07 01:03:41;;;;;;;1.27;0.77;;;21.80;50.40;;;;;;5017180;28;20041;-63
2021/01/07 01:06:06;;;;;;;1.45;0.75;;;21.70;50.40;;;;;;5008484;28;20091;-65
2021/01/07 01:08:32;;;;;;;1.35;0.88;;;21.70;50.40;;;;;;5007049;28;20069;-64
2021/01/07 01:10:59;;;;;;;1.58;0.75;;;21.70;50.40;;;;;;5008865;28;20456;-63
2021/01/07 01:13:25;;;;;;;0.93;0.68;;;21.70;50.40;;;;;;5008257;28;20471;-65
2021/01/07 01:15:51;;;;;;;1.90;0.98;;;21.70;50.40;;;;;;5008987;28;20165;-66
2021/01/07 01:18:16;;;;;;;1.25;0.80;;;21.70;50.50;;;;;;5009311;28;20038;-65
2021/01/07 01:20:42;;;;;;;1.17;0.75;;;21.70;50.40;;;;;;5019723;28;20051;-66
2021/01/07 01:23:07;;;;;;;1.50;0.70;;;21.60;50.40;;;;;;5011524;28;20072;-64
2021/01/07 01:25:33;;;;;;;1.13;0.77;;;21.60;50.40;;;;;;5013268;28;20026;-63
2021/01/07 01:27:59;;;;;;;0.80;0.60;;;21.60;50.50;;;;;;5010834;28;20088;-65
2021/01/07 01:30:24;;;;;;;1.25;0.80;;;21.60;50.40;;;;;;5010209;28;20045;-67
2021/01/07 01:32:50;;;;;;;1.30;0.70;;;21.60;50.40;;;;;;5011566;28;20037;-67
2021/01/07 01:35:16;;;;;;;0.98;0.75;;;21.60;50.40;;;;;;5006468;28;20081;-66
2021/01/07 01:37:42;;;;;;;1.58;0.73;;;21.60;50.50;;;;;;5025322;28;20017;-65
2021/01/07 01:40:10;;;;;;;1.38;0.90;;;21.60;50.50;;;;;;5006523;28;20041;-63
2021/01/07 01:42:36;;;;;;;1.45;0.80;;;21.60;50.50;;;;;;5013294;28;20014;-63
2021/01/07 01:45:03;;;;;;;1.60;0.68;;;21.50;50.50;;;;;;5017957;28;20017;-68
2021/01/07 01:47:29;;;;;;;1.00;0.70;;;21.50;50.50;;;;;;5025972;28;20033;-67
2021/01/07 01:49:55;;;;;;;1.50;0.68;;;21.50;50.50;;;;;;5022960;28;20091;-64
2021/01/07 01:52:23;;;;;;;0.65;0.60;;;21.50;50.50;;;;;;5020775;28;20041;-66
2021/01/07 01:54:48;;;;;;;1.15;0.70;;;21.50;50.50;;;;;;5025797;28;20029;-67
2021/01/07 01:57:15;;;;;;;1.25;0.80;;;21.50;50.50;;;;;;5025299;28;20100;-65
2021/01/07 01:59:42;;;;;;;1.42;0.82;;;21.50;50.50;;;;;;5023155;28;20046;-66
2021/01/07 02:02:16;;;;;;;0.80;0.68;;;21.40;50.50;;;;;;5013617;28;20369;-63
2021/01/07 02:04:46;;;;;;;1.58;0.70;;;21.40;50.50;;;;;;5014408;28;20032;-63
2021/01/07 02:07:14;;;;;;;1.00;0.70;;;21.40;50.60;;;;;;5005751;28;20038;-68
2021/01/07 02:09:43;;;;;;;1.13;0.70;;;21.40;50.50;;;;;;5004985;28;20056;-66
2021/01/07 02:12:09;;;;;;;;;;;21.40;50.60;;;;;;5008448;28;20147;-65
2021/01/07 02:14:42;;;;;;;1.10;0.70;;;21.40;50.60;;;;;;5006550;28;20103;-66
2021/01/07 02:17:08;;;;;;;0.93;0.65;;;21.40;50.60;;;;;;5003572;28;20022;-64
2021/01/07 02:19:34;;;;;;;1.40;0.70;;;21.40;50.60;;;;;;5008207;28;20082;-65
2021/01/07 02:22:00;;;;;;;0.50;0.50;;;21.40;50.70;;;;;;5005583;28;20042;-64
2021/01/07 02:24:27;;;;;;;1.98;0.70;;;21.30;50.60;;;;;;5012850;28;20014;-64
2021/01/07 02:26:55;;;;;;;1.20;0.70;;;21.30;50.60;;;;;;5012829;28;20473;-65
2021/01/07 02:29:20;;;;;;;1.40;0.88;;;21.30;50.60;;;;;;5017981;28;20087;-65
2021/01/07 02:31:46;;;;;;;1.65;0.80;;;21.30;50.60;;;;;;5024069;28;20026;-63
2021/01/07 02:34:12;;;;;;;0.95;0.63;;;21.30;50.60;;;;;;5011557;28;20045;-67
2021/01/07 02:36:37;;;;;;;1.65;0.60;;;21.30;50.60;;;;;;5020048;28;20034;-63
2021/01/07 02:39:03;;;;;;;0.60;0.60;;;21.30;50.70;;;;;;5005314;28;20041;-64
2021/01/07 02:41:29;;;;;;;1.20;0.70;;;21.30;50.70;;;;;;5004533;28;20137;-68
2021/01/07 02:43:54;;;;;;;0.82;0.55;;;21.30;50.70;;;;;;5016343;28;20099;-65
2021/01/07 02:46:20;;;;;;;0.70;0.60;;;21.20;50.60;;;;;;5011988;28;20046;-64
2021/01/07 02:48:46;;;;;;;1.42;0.60;;;21.20;50.60;;;;;;5007936;28;20033;-64
2021/01/07 02:51:11;;;;;;;0.98;0.70;;;21.20;50.70;;;;;;5017247;28;20032;-63
2021/01/07 02:53:37;;;;;;;0.52;0.50;;;21.20;50.70;;;;;;5011025;28;20041;-63
2021/01/07 02:56:02;;;;;;;1.20;0.80;;;21.20;50.70;;;;;;5015634;28;20041;-65
2021/01/07 02:58:28;;;;;;;1.00;0.70;;;21.20;50.70;;;;;;5026612;28;20034;-64
2021/01/07 03:00:53;;;;;;;0.73;0.57;;;21.20;50.70;;;;;;5021300;28;20017;-64
2021/01/07 03:03:19;;;;;;;1.48;0.70;;;21.20;50.80;;;;;;5015878;28;20037;-68
2021/01/07 03:05:45;;;;;;;1.08;0.63;;;21.20;50.70;;;;;;5004741;28;20115;-65
2021/01/07 03:08:10;;;;;;;1.13;0.60;;;21.20;50.80;;;;;;5005732;28;20037;-64
2021/01/07 03:10:36;;;;;;;0.77;0.60;;;21.10;50.70;;;;;;5009565;28;20500;-63
2021/01/07 03:13:01;;;;;;;1.30;0.65;;;21.20;50.80;;;;;;5010142;28;20029;-64
2021/01/07 03:15:27;;;;;;;0.63;0.50;;;21.10;50.70;;;;;;5017119;28;20491;-66
2021/01/07 03:17:52;;;;;;;0.70;0.50;;;21.10;50.80;;;;;;5005127;28;20034;-65
2021/01/07 03:20:18;;;;;;;0.90;0.60;;;21.10;50.80;;;;;;5015526;28;20167;-66
2021/01/07 03:22:44;;;;;;;0.90;0.63;;;21.10;50.80;;;;;;5004102;28;20026;-62
2021/01/07 03:25:11;;;;;;;0.73;0.60;;;21.10;50.80;;;;;;5006608;28;20049;-65
2021/01/07 03:27:38;;;;;;;0.70;0.52;;;21.10;50.80;;;;;;5017491;28;20051;-65
2021/01/07 03:30:05;;;;;;;0.98;0.68;;;21.10;50.80;;;;;;5005842;28;20066;-64
2021/01/07 03:32:31;;;;;;;0.75;0.60;;;21.10;50.80;;;;;;5022334;28;20033;-64
2021/01/07 03:34:56;;;;;;;0.65;0.55;;;21.00;50.80;;;;;;5022769;28;20041;-64
2021/01/07 03:37:22;;;;;;;0.98;0.60;;;21.00;50.80;;;;;;5025944;28;20122;-64
2021/01/07 03:39:48;;;;;;;0.60;0.50;;;21.00;51.30;;;;;;5022922;28;20396;-64
2021/01/07 03:42:13;;;;;;;0.95;0.65;;;21.00;50.90;;;;;;5018035;28;20040;-63
2021/01/07 03:44:39;;;;;;;0.80;0.60;;;21.00;50.90;;;;;;5006523;28;20026;-64
2021/01/07 03:47:05;;;;;;;0.90;0.60;;;21.00;50.90;;;;;;5006389;28;20050;-63
2021/01/07 03:49:31;;;;;;;0.80;0.55;;;21.00;50.90;;;;;;5005875;28;20056;-65
2021/01/07 03:51:57;;;;;;;0.60;0.50;;;21.00;50.90;;;;;;5008836;28;20364;-65
2021/01/07 03:54:22;;;;;;;0.82;0.50;;;21.00;51.00;;;;;;5009820;28;20033;-69
2021/01/07 03:56:48;;;;;;;0.80;0.50;;;20.90;50.90;;;;;;5016356;28;20037;-66
2021/01/07 03:59:13;;;;;;;0.70;0.60;;;20.90;50.90;;;;;;5011103;28;20030;-65
2021/01/07 04:01:39;;;;;;;1.02;0.60;;;20.90;50.90;;;;;;5014709;28;20096;-64
2021/01/07 04:04:05;;;;;;;1.00;0.77;;;20.90;51.00;;;;;;5009612;28;20030;-63
2021/01/07 04:06:30;;;;;;;1.15;0.77;;;20.90;51.00;;;;;;5010275;28;20037;-67
2021/01/07 04:08:56;;;;;;;0.57;0.50;;;20.90;51.00;;;;;;5011984;28;20448;-64
2021/01/07 04:11:21;;;;;;;0.73;0.60;;;20.90;51.00;;;;;;5022688;28;20344;-66
2021/01/07 04:13:47;;;;;;;0.68;0.50;;;20.90;51.00;;;;;;5012096;28;20029;-63
2021/01/07 04:16:13;;;;;;;0.73;0.55;;;20.80;51.00;;;;;;5018550;28;20076;-66
2021/01/07 04:18:39;;;;;;;0.43;0.43;;;20.80;51.00;;;;;;5007991;28;20491;-63
2021/01/07 04:21:05;;;;;;;0.80;0.57;;;20.80;51.00;;;;;;5009634;28;20034;-66
2021/01/07 04:23:30;;;;;;;0.68;0.60;;;20.80;51.00;;;;;;5011134;28;20036;-63
2021/01/07 04:25:56;;;;;;;0.80;0.65;;;20.90;51.60;;;;;;5021096;28;20026;-63
2021/01/07 04:28:21;;;;;;;0.70;0.60;;;20.80;51.10;;;;;;5010423;28;20037;-65
2021/01/07 04:30:48;;;;;;;0.50;0.50;;;20.80;51.10;;;;;;5009136;28;20084;-63
2021/01/07 04:33:13;;;;;;;0.90;0.63;;;20.80;51.10;;;;;;5014616;28;20030;-64
2021/01/07 04:35:39;;;;;;;0.65;0.60;;;20.80;51.00;;;;;;5027936;28;20026;-63
2021/01/07 04:38:04;;;;;;;0.43;0.43;;;20.80;51.10;;;;;;5028525;28;20120;-64
2021/01/07 04:40:30;;;;;;;0.50;0.50;;;20.80;51.10;;;;;;5010316;28;20034;-64
2021/01/07 04:42:56;;;;;;;0.70;0.60;;;20.70;51.00;;;;;;5009408;28;20112;-64
2021/01/07 04:45:22;;;;;;;0.57;0.50;;;20.80;51.10;;;;;;5011242;28;20049;-64
2021/01/07 04:47:50;;;;;;;0.80;0.60;;;20.80;51.10;;;;;;5007809;28;20046;-67
2021/01/07 04:50:17;;;;;;;0.65;0.57;;;20.70;51.10;;;;;;5008578;28;20026;-64
2021/01/07 04:52:42;;;;;;;0.82;0.55;;;20.70;51.10;;;;;;5009212;28;20022;-68
2021/01/07 04:55:12;;;;;;;1.02;0.70;;;20.70;51.10;;;;;;5008985;28;20441;-68
2021/01/07 04:57:38;;;;;;;0.73;0.55;;;20.70;51.10;;;;;;5023696;28;20113;-66
2021/01/07 05:00:09;;;;;;;0.70;0.50;;;20.70;51.10;;;;;;5011244;28;20156;-65
2021/01/07 05:02:35;;;;;;;0.55;0.50;;;20.70;51.10;;;;;;5017779;28;20064;-65
2021/01/07 05:05:04;;;;;;;0.82;0.60;;;20.70;51.10;;;;;;5022076;28;20149;-65
2021/01/07 05:07:30;;;;;;;0.50;0.50;;;20.70;51.60;;;;;;5008241;28;20083;-64
2021/01/07 05:10:05;;;;;;;0.60;0.60;;;20.70;51.20;;;;;;5020054;28;20033;-64
2021/01/07 05:12:30;;;;;;;1.05;0.60;;;20.70;51.20;;;;;;5027141;28;20029;-63
2021/01/07 05:14:56;;;;;;;0.60;0.50;;;20.70;51.20;;;;;;5007254;28;20087;-65
2021/01/07 05:17:22;;;;;;;0.75;0.57;;;20.70;51.20;;;;;;5009781;28;20046;-67
2021/01/07 05:19:48;;;;;;;0.57;0.52;;;20.70;51.20;;;;;;5009029;28;20037;-64
2021/01/07 05:22:13;;;;;;;0.50;0.50;;;20.60;51.20;;;;;;5009895;28;20480;-65
2021/01/07 05:24:40;;;;;;;0.80;0.60;;;20.60;51.20;;;;;;5009198;28;20109;-64
2021/01/07 05:27:10;;;;;;;0.45;0.45;;;20.60;51.20;;;;;;5007297;28;20026;-63
2021/01/07 05:29:40;;;;;;;0.50;0.50;;;20.60;51.20;;;;;;5007177;28;20041;-67
2021/01/07 05:32:06;;;;;;;;;;;20.60;51.20;;;;;;5008536;28;20077;-65
2021/01/07 05:34:32;;;;;;;0.50;0.50;;;20.60;51.20;;;;;;5007973;28;19912;-64
2021/01/07 05:36:58;;;;;;;0.50;0.50;;;20.60;51.20;;;;;;5011491;28;20021;-63
2021/01/07 05:39:34;;;;;;;0.50;0.50;;;20.60;51.20;;;;;;5016811;28;20029;-67
2021/01/07 05:42:01;;;;;;;0.50;0.50;;;20.60;51.20;;;;;;5008171;28;20380;-66
2021/01/07 05:44:30;;;;;;;0.50;0.50;;;20.60;51.20;;;;;;5023874;28;20095;-65
2021/01/07 05:46:56;;;;;;;0.47;0.40;;;20.60;51.20;;;;;;5009135;28;20490;-64
2021/01/07 05:49:34;;;;;;;0.85;0.60;;;20.60;51.20;;;;;;5007905;28;20109;-65
2021/01/07 05:52:04;;;;;;;0.52;0.52;;;20.60;51.20;;;;;;5008596;28;20022;-64
2021/01/07 05:54:31;;;;;;;0.68;0.55;;;20.50;51.20;;;;;;5020439;28;20033;-63
2021/01/07 05:57:01;;;;;;;0.60;0.60;;;20.50;51.20;;;;;;5027449;28;20026;-69
2021/01/07 05:59:29;;;;;;;0.50;0.50;;;20.50;51.20;;;;;;5020809;28;20037;-65
2021/01/07 06:01:55;;;;;;;0.50;0.50;;;20.50;51.20;;;;;;5012251;28;20427;-64
2021/01/07 06:04:21;;;;;;;0.70;0.50;;;20.50;51.20;;;;;;5008821;28;20030;-66
2021/01/07 06:06:48;;;;;;;0.73;0.60;;;20.50;51.20;;;;;;5027124;28;20049;-67
2021/01/07 06:09:14;;;;;;;0.50;0.50;;;20.50;51.30;;;;;;5019869;28;20033;-66
2021/01/07 06:11:41;;;;;;;0.50;0.50;;;20.50;51.30;;;;;;5012082;28;20464;-64
2021/01/07 06:14:07;;;;;;;0.50;0.50;;;20.40;51.20;;;;;;5010646;28;20029;-65
2021/01/07 06:16:33;;;;;;;0.77;0.50;;;20.40;51.20;;;;;;5025066;28;20033;-65
2021/01/07 06:19:47;;;;;;;0.63;0.60;;;20.40;51.20;;;;;;5011004;28;20331;-64
2021/01/07 06:22:15;;;;;;;0.50;0.50;;;20.40;51.20;;;;;;5005971;28;20042;-64
2021/01/07 06:24:41;;;;;;;0.60;0.60;;;20.40;51.30;;;;;;5022103;28;20104;-64
2021/01/07 06:27:20;;;;;;;0.57;0.50;;;20.40;51.30;;;;;;5019616;28;20449;-64
2021/01/07 06:29:46;;;;;;;0.43;0.43;;;20.40;51.40;;;;;;5009594;28;20034;-64
2021/01/07 06:32:12;;;;;;;0.90;0.60;;;20.40;51.30;;;;;;5006959;28;20038;-64
2021/01/07 06:34:39;;;;;;;0.80;0.60;;;20.40;51.30;;;;;;5007223;28;20052;-67
2021/01/07 06:37:05;;;;;;;0.63;0.57;;;20.40;51.30;;;;;;5009001;28;20354;-64
2021/01/07 06:39:31;;;;;;;0.65;0.60;;;20.40;51.50;;;;;;5008264;28;20096;-67
2021/01/07 06:41:59;;;;;;;0.63;0.50;;;20.40;51.30;;;;;;5008184;28;20018;-63
2021/01/07 06:44:26;;;;;;;0.45;0.45;;;20.30;51.30;;;;;;5007447;28;20105;-65
2021/01/07 06:46:52;;;;;;;0.60;0.50;;;20.40;51.30;;;;;;5014315;28;20155;-63
2021/01/07 06:49:28;;;;;;;0.38;0.38;;;20.30;51.30;;;;;;5008081;28;20053;-65
2021/01/07 06:51:58;;;;;;;0.75;0.50;;;20.40;51.40;;;;;;5017516;28;20330;-61
2021/01/07 06:54:29;;;;;;;0.60;0.60;;;20.30;51.30;;;;;;5017264;28;20036;-62
2021/01/07 06:56:55;;;;;;;1.15;0.55;;;20.30;51.30;;;;;;5025708;28;20033;-61
2021/01/07 06:59:22;;;;;;;0.55;0.50;;;20.30;51.30;;;;;;5012230;28;20065;-64
2021/01/07 07:01:50;;;;;;;1.02;0.60;;;20.30;51.40;;;;;;5007916;28;20115;-69
2021/01/07 07:04:26;;;;;;;0.63;0.55;;;20.30;51.40;;;;;;5010071;28;20026;-62
2021/01/07 07:06:59;;;;;;;0.45;0.40;;;20.30;51.40;;;;;;5005252;28;20477;-64
2021/01/07 07:09:26;;;;;;;0.63;0.47;;;20.30;51.30;;;;;;5005632;28;20022;-65
2021/01/07 07:11:53;;;;;;;0.50;0.50;;;20.30;51.40;;;;;;5016918;28;20091;-62
2021/01/07 07:14:20;;;;;;;0.65;0.50;;;20.30;51.40;;;;;;5021370;28;20092;-64
2021/01/07 07:16:48;;;;;;;0.57;0.57;;;20.20;51.30;;;;;;5006212;28;20519;-62
2021/01/07 07:19:27;;;;;;;0.77;0.57;;;20.30;51.40;;;;;;5015589;28;20116;-63
2021/01/07 07:22:00;;;;;;;0.60;0.60;;;20.30;51.40;;;;;;5005901;28;20483;-64
2021/01/07 07:24:49;;;;;;;0.70;0.50;;;20.30;51.40;;;;;;5020532;28;20040;-62
2021/01/07 07:27:17;;;;;;;0.60;0.50;;;20.20;51.40;;;;;;5016056;28;20041;-64
2021/01/07 07:29:45;;;;;;;0.43;0.43;;;20.20;51.40;;;;;;5013659;28;20044;-63
2021/01/07 07:32:22;;;;;;;0.40;0.40;;;20.20;51.40;;;;;;5010955;28;20037;-63
2021/01/07 07:34:50;;;;;;;0.50;0.50;;;20.20;51.50;;;;;;5005304;28;20383;-67
2021/01/07 07:37:24;;;;;;;0.60;0.60;;;20.20;51.40;;;;;;5017320;28;20128;-63
2021/01/07 07:39:57;;;;;;;0.47;0.47;;;20.20;51.40;;;;;;5015786;28;20105;-63
2021/01/07 07:42:26;;;;;;;0.38;0.38;;;20.30;51.40;;;;;;5007822;28;20050;-65
2021/01/07 07:44:51;;;;;;;0.68;0.50;;;20.20;51.40;;;;;;5017176;28;20506;-65
2021/01/07 07:47:20;;;;;;;0.50;0.50;;;20.20;51.40;;;;;;5010249;28;20124;-63
2021/01/07 07:49:52;;;;;;;0.50;0.50;;;20.20;51.50;;;;;;5013258;28;20027;-63
2021/01/07 07:52:22;;;;;;;0.50;0.50;;;20.20;51.50;;;;;;5020607;28;20049;-66
2021/01/07 07:55:01;;;;;;;0.45;0.40;;;20.20;51.50;;;;;;5008030;28;20034;-66
2021/01/07 07:57:27;;;;;;;0.70;0.60;;;20.20;51.50;;;;;;5019161;28;20338;-62
2021/01/07 07:59:53;;;;;;;0.73;0.60;;;20.20;51.50;;;;;;5006393;28;20033;-63
2021/01/07 08:02:19;;;;;;;0.47;0.47;;;20.20;51.50;;;;;;5009814;28;20022;-63
2021/01/07 08:04:44;;;;;;;0.60;0.50;;;20.20;51.50;;;;;;5005932;28;20041;-63
2021/01/07 08:07:10;;;;;;;0.82;0.60;;;20.10;51.40;;;;;;5009030;28;20122;-64
2021/01/07 08:09:36;;;;;;;0.47;0.40;;;20.10;51.50;;;;;;5015216;28;20033;-64
2021/01/07 08:12:01;;;;;;;0.47;0.45;;;20.10;51.50;;;;;;5025692;28;20030;-66
2021/01/07 08:14:30;;;;;;;0.43;0.43;;;20.10;51.50;;;;;;5022066;28;20038;-64
2021/01/07 08:16:57;;;;;;;0.50;0.43;;;20.10;51.50;;;;;;5016791;28;20080;-63
2021/01/07 08:19:34;;;;;;;0.57;0.50;;;20.10;51.50;;;;;;5010732;28;20040;-67
2021/01/07 08:22:00;;;;;;;0.50;0.50;;;20.10;51.40;;;;;;5018647;28;20418;-62
2021/01/07 08:24:26;;;;;;;0.60;0.50;;;20.10;51.50;;;;;;5017193;28;20357;-63
2021/01/07 08:27:05;;;;;;;0.55;0.52;;;20.10;52.00;;;;;;5007665;28;20083;-67
2021/01/07 08:29:35;;;;;;;0.60;0.55;;;20.10;51.50;;;;;;5021560;28;20033;-64
2021/01/07 08:32:04;;;;;;;0.55;0.50;;;20.10;51.50;;;;;;5012790;28;20059;-65
2021/01/07 08:34:31;;;;;;;0.50;0.40;;;20.10;51.50;;;;;;5016470;28;20041;-64
2021/01/07 08:37:33;;;;;;;0.60;0.50;;;20.10;51.50;;;;;;5009379;28;20037;-63
2021/01/07 08:40:05;;;;;;;0.40;0.40;;;20.10;51.60;;;;;;4990791;28;20503;-64
2021/01/07 08:42:38;;;;;;;0.65;0.50;;;20.10;51.50;;;;;;5012565;28;20017;-62
2021/01/07 08:45:08;;;;;;;0.45;0.45;;;20.10;51.50;;;;;;5021608;28;20022;-67
2021/01/07 08:47:33;;;;;;;0.70;0.60;;;20.00;51.50;;;;;;5019313;28;20041;-67
2021/01/07 08:50:10;;;;;;;0.57;0.50;;;20.00;51.50;;;;;;5015596;28;20597;-65
2021/01/07 08:52:56;;;;;;;0.98;0.57;;;20.00;51.50;;;;;;5016054;28;20026;-66
2021/01/07 08:55:47;;;;;;;0.90;0.60;;;20.00;51.50;;;;;;5010849;28;20125;-64
2021/01/07 08:58:23;;;;;;;0.50;0.50;;;20.00;51.50;;;;;;5011359;28;20049;-64
2021/01/07 09:00:50;;;;;;;0.52;0.52;;;20.00;51.50;;;;;;5026825;28;20026;-65
2021/01/07 09:03:16;;;;;;;0.50;0.50;;;20.00;51.50;;;;;;5023232;28;20025;-64
2021/01/07 09:05:41;;;;;;;0.50;0.50;;;20.00;51.50;;;;;;5008954;28;20033;-64
2021/01/07 09:08:08;;;;;;;0.63;0.50;;;20.00;51.50;;;;;;5008337;28;20068;-65
2021/01/07 09:10:34;;;;;;;0.47;0.47;;;20.00;51.50;;;;;;5008191;28;20122;-65
2021/01/07 09:13:14;;;;;;;0.30;0.30;;;20.00;51.50;;;;;;5013427;28;20105;-64
2021/01/07 09:15:39;;;;;;;;;;;20.00;51.50;;;;;;5013459;28;20032;-64
2021/01/07 09:18:05;;;;;;;0.47;0.47;;;19.90;51.50;;;;;;5025576;28;19917;-68
2021/01/07 09:20:34;;;;;;;1.05;0.50;;;20.00;51.60;;;;;;5025089;28;20032;-66
2021/01/07 09:23:08;;;;;;;0.55;0.52;;;20.00;51.60;;;;;;5014706;28;20030;-64
2021/01/07 09:25:34;;;;;;;0.50;0.50;;;20.00;51.60;;;;;;5016910;28;20080;-63
2021/01/07 09:28:01;;;;;;;0.45;0.40;;;19.90;51.50;;;;;;5024121;28;20026;-63
2021/01/07 09:30:27;;;;;;;0.40;0.40;;;19.90;51.50;;;;;;5020585;28;20629;-65
2021/01/07 09:32:53;;;;;;;0.80;0.50;;;19.90;51.60;;;;;;5026653;28;20123;-65
2021/01/07 09:35:20;;;;;;;0.50;0.50;;;19.90;51.60;;;;;;5029285;28;20538;-63
2021/01/07 09:37:45;;;;;;;0.50;0.50;;;19.90;51.60;;;;;;5025946;28;20054;-65
2021/01/07 09:40:11;;;;;;;0.50;0.50;;;19.90;51.60;;;;;;5011444;28;20080;-63
2021/01/07 09:42:37;;;;;;;0.63;0.50;;;19.90;51.60;;;;;;5020234;28;20113;-69
2021/01/07 09:45:07;;;;;;;0.50;0.50;;;19.90;51.60;;;;;;5025154;28;20100;-66
2021/01/07 09:47:34;;;;;;;0.50;0.50;;;19.90;51.60;;;;;;5014230;28;20201;-69
2021/01/07 09:50:01;;;;;;;0.47;0.47;;;19.90;51.60;;;;;;5014030;28;20107;-65
2021/01/07 09:52:26;;;;;;;0.43;0.43;;;19.90;51.60;;;;;;5024092;28;20055;-66
2021/01/07 09:54:52;;;;;;;0.40;0.40;;;19.90;52.10;;;;;;5009665;28;20034;-69
2021/01/07 09:57:17;;;;;;;0.52;0.52;;;19.90;51.60;;;;;;5011637;28;20029;-66
2021/01/07 09:59:43;;;;;;;0.50;0.50;;;19.80;51.60;;;;;;5012727;28;20037;-64
2021/01/07 10:02:10;;;;;;;0.60;0.60;;;19.80;52.10;;;;;;5013701;28;20072;-66
2021/01/07 10:04:37;;;;;;;0.68;0.57;;;19.80;51.60;;;;;;5008374;28;20022;-65
2021/01/07 10:07:04;;;;;;;0.40;0.40;;;19.80;51.60;;;;;;5009918;28;20030;-64
2021/01/07 10:09:30;;;;;;;2.35;1.65;;;19.80;51.60;;;;;;5013040;28;20091;-63
2021/01/07 10:11:57;;;;;;;6.65;5.95;;;19.80;46.20;;;;;;5016556;28;20021;-64
2021/01/07 10:14:24;;;;;;;8.77;7.88;;;19.70;39.10;;;;;;5020228;28;20041;-66
2021/01/07 10:17:01;;;;;;;10.02;8.95;;;19.40;35.80;;;;;;5013915;28;20057;-66
2021/01/07 10:19:29;;;;;;;10.45;8.63;;;19.00;36.10;;;;;;5009739;28;20025;-64
2021/01/07 10:22:04;;;;;;;10.75;9.45;;;18.70;35.60;;;;;;5010719;28;20029;-64
2021/01/07 10:24:32;;;;;;;8.57;6.60;;;18.40;36.10;;;;;;5012003;28;20037;-63
2021/01/07 10:27:00;;;;;;;6.55;5.20;;;18.40;38.90;;;;;;5008417;28;20120;-66
2021/01/07 10:29:30;;;;;;;5.82;4.80;;;18.50;40.50;;;;;;5005077;28;20116;-64
2021/01/07 10:32:05;;;;;;;5.30;3.90;;;18.60;42.30;;;;;;5010710;28;20056;-63
2021/01/07 10:34:35;;;;;;;4.10;3.33;;;18.80;43.20;;;;;;5009058;28;20033;-63
2021/01/07 10:37:03;;;;;;;5.45;3.60;;;18.90;43.60;;;;;;5012170;28;20030;-62
2021/01/07 10:39:35;;;;;;;5.25;3.10;;;18.90;43.90;;;;;;5019086;28;20536;-65
2021/01/07 10:42:01;;;;;;;4.00;2.63;;;19.00;44.20;;;;;;5017164;28;20022;-65
2021/01/07 10:44:28;;;;;;;3.53;2.50;;;19.10;44.40;;;;;;5018868;28;20029;-64
2021/01/07 10:46:58;;;;;;;3.60;2.60;;;19.10;44.60;;;;;;5009061;28;20661;-64
2021/01/07 10:49:26;;;;;;;3.63;2.47;;;19.10;44.90;;;;;;5014377;28;20165;-69
2021/01/07 10:52:07;;;;;;;3.30;2.25;;;19.20;45.10;;;;;;5010387;28;20030;-64
2021/01/07 10:54:48;;;;;;;2.92;1.83;;;19.20;45.40;;;;;;5018175;28;20042;-66
2021/01/07 10:57:19;;;;;;;2.70;1.83;;;19.20;45.60;;;;;;5018402;28;20034;-64
2021/01/07 11:00:04;;;;;;;2.97;2.08;;;19.20;45.80;;;;;;5013989;28;20033;-67
2021/01/07 11:02:57;;;;;;;3.25;2.20;;;19.30;46.10;;;;;;5002690;28;20025;-68
2021/01/07 11:05:26;;;;;;;3.10;2.17;;;19.30;46.80;;;;;;5013072;28;20044;-65
2021/01/07 11:08:14;;;;;;;3.65;2.75;;;19.40;47.10;;;;;;5006911;28;20033;-66
2021/01/07 11:10:43;;;;;;;3.80;2.70;;;19.60;47.20;;;;;;5000079;28;20091;-69
2021/01/07 11:13:09;;;;;;;;;;;19.70;47.10;;;;;;5004697;28;20048;-66
2021/01/07 11:15:37;;;;;;;4.00;2.20;;;19.80;47.00;;;;;;5002165;28;19913;-64
2021/01/07 11:18:19;;;;;;;2.85;2.00;;;19.90;47.10;;;;;;5011294;28;20091;-65
2021/01/07 11:20:53;;;;;;;3.65;1.88;;;20.00;47.10;;;;;;5002889;28;20030;-65
2021/01/07 11:23:20;;;;;;;2.85;2.00;;;20.10;47.20;;;;;;5006351;28;20030;-65
2021/01/07 11:25:48;;;;;;;2.80;2.03;;;20.10;47.20;;;;;;5003686;28;20018;-67
2021/01/07 11:28:17;;;;;;;3.40;2.20;;;20.20;47.30;;;;;;5004811;28;20516;-65
2021/01/07 11:30:43;;;;;;;2.50;1.70;;;20.30;47.30;;;;;;5004325;28;20077;-67
2021/01/07 11:33:10;;;;;;;3.10;1.73;;;20.40;47.30;;;;;;5001301;28;20052;-65
2021/01/07 11:35:37;;;;;;;3.05;1.90;;;20.50;47.30;;;;;;5020786;28;20033;-67
2021/01/07 11:38:17;;;;;;;2.95;2.00;;;20.60;47.30;;;;;;5012347;28;20037;-66
2021/01/07 11:41:06;;;;;;;3.55;1.73;;;20.70;47.20;;;;;;5022055;28;20036;-66
2021/01/07 11:43:43;;;;;;;3.37;2.00;;;20.80;47.10;;;;;;5005075;28;20388;-66
2021/01/07 11:46:16;;;;;;;2.88;2.10;;;20.90;47.10;;;;;;5001030;28;20026;-66
2021/01/07 11:48:46;;;;;;;3.22;1.90;;;21.10;46.90;;;;;;5000737;28;20258;-66
2021/01/07 11:51:13;;;;;;;2.40;1.70;;;21.20;46.90;;;;;;5003836;28;20030;-67
2021/01/07 11:53:39;;;;;;;2.88;1.73;;;21.30;46.90;;;;;;5008392;28;20034;-69
2021/01/07 11:56:05;;;;;;;3.33;2.08;;;21.40;46.70;;;;;;5025170;28;20108;-66
2021/01/07 11:58:31;;;;;;;3.10;1.92;;;21.50;46.60;;;;;;5025733;28;20099;-66
2021/01/07 12:00:59;;;;;;;3.40;2.13;;;21.60;46.30;;;;;;5018899;28;20485;-66
2021/01/07 12:03:33;;;;;;;3.40;1.92;;;21.70;46.30;;;;;;5017504;28;20045;-67
2021/01/07 12:06:09;;;;;;;2.80;1.90;;;21.80;46.30;;;;;;5012300;28;20036;-64
2021/01/07 12:09:02;;;;;;;3.35;1.90;;;21.90;46.10;;;;;;5015175;28;20104;-66
2021/01/07 12:11:37;;;;;;;3.20;2.10;;;22.00;46.00;;;;;;5022735;28;20475;-64
2021/01/07 12:14:05;;;;;;;4.03;1.90;;;22.10;45.90;;;;;;5012526;28;20042;-68
2021/01/07 12:16:36;;;;;;;3.35;1.85;;;22.20;46.00;;;;;;5015799;28;20039;-67
2021/01/07 12:19:02;;;;;;;2.88;1.88;;;22.30;45.80;;;;;;5011455;28;20429;-68
2021/01/07 12:21:29;;;;;;;2.40;1.70;;;22.40;45.70;;;;;;5011727;28;20018;-67
2021/01/07 12:23:59;;;;;;;3.30;1.80;;;22.50;45.30;;;;;;5004082;28;20034;-67
2021/01/07 12:26:26;;;;;;;2.28;1.60;;;22.60;45.40;;;;;;5006157;28;20034;-65
2021/01/07 12:28:52;;;;;;;2.40;1.60;;;22.70;45.30;;;;;;5007585;28;21041;-67
2021/01/07 12:31:19;;;;;;;3.80;1.90;;;22.70;45.20;;;;;;5004297;28;20393;-66
2021/01/07 12:34:34;;;;;;;2.38;1.67;;;22.80;44.90;;;;;;5017559;28;20258;-66
2021/01/07 12:37:06;;;;;;;2.45;1.75;;;22.80;44.70;;;;;;5009474;28;20038;-67
2021/01/07 12:39:35;;;;;;;3.22;2.00;;;22.80;44.70;;;;;;5020899;28;20037;-66
2021/01/07 12:42:08;;;;;;;2.53;1.75;;;22.80;44.80;;;;;;5005890;28;20025;-65
2021/01/07 12:44:35;;;;;;;2.80;1.80;;;22.70;44.70;;;;;;5012245;28;20030;-64
2021/01/07 12:47:01;;;;;;;2.55;1.70;;;22.70;44.70;;;;;;5012303;28;20381;-67
2021/01/07 12:49:29;;;;;;;2.40;1.65;;;22.80;44.70;;;;;;5014650;28;20044;-67
2021/01/07 12:51:55;;;;;;;2.17;1.50;;;22.70;44.80;;;;;;5012610;28;20456;-65
2021/01/07 12:54:20;;;;;;;3.50;1.90;;;22.70;44.80;;;;;;5027398;28;20091;-65